createdAt,value
2022-08-28T00:02:29.859Z,16.00
2022-08-28T00:05:40.759Z,16.04
2022-08-28T00:08:52.454Z,15.97
2022-08-28T00:12:03.192Z,15.94
2022-08-28T00:15:17.500Z,15.86
2022-08-28T00:18:28.128Z,15.86
2022-08-28T00:21:39.181Z,15.83
2022-08-28T00:24:50.812Z,15.76
2022-08-28T00:28:10.332Z,15.76
2022-08-28T00:31:20.975Z,15.75
2022-08-28T00:34:33.781Z,15.76
2022-08-28T00:37:44.286Z,15.84
2022-08-28T00:41:03.996Z,15.92
2022-08-28T00:44:17.197Z,15.91
2022-08-28T00:47:28.364Z,15.87
2022-08-28T00:50:52.450Z,15.81
2022-08-28T00:54:07.553Z,15.69
2022-08-28T00:57:27.004Z,15.65
2022-08-28T01:00:40.343Z,15.65
2022-08-28T01:03:50.915Z,15.59
2022-08-28T01:07:06.227Z,15.57
2022-08-28T01:10:19.887Z,15.52
2022-08-28T01:13:33.171Z,15.43
2022-08-28T01:16:44.462Z,15.40
2022-08-28T01:20:03.013Z,15.45
2022-08-28T01:23:21.416Z,15.47
2022-08-28T01:26:32.997Z,15.47
2022-08-28T01:29:44.800Z,15.41
2022-08-28T01:32:58.855Z,15.36
2022-08-28T01:36:10.402Z,15.39
2022-08-28T01:39:23.880Z,15.40
2022-08-28T01:42:39.692Z,15.45
2022-08-28T01:45:53.164Z,15.39
2022-08-28T01:49:04.855Z,15.35
2022-08-28T01:52:15.255Z,15.32
2022-08-28T01:55:25.930Z,15.32
2022-08-28T01:58:39.452Z,15.32
2022-08-28T02:01:49.939Z,15.30
2022-08-28T02:05:00.589Z,15.31
2022-08-28T02:08:11.067Z,15.28
2022-08-28T02:11:23.808Z,15.30
2022-08-28T02:14:35.527Z,15.32
2022-08-28T02:17:46.111Z,15.38
2022-08-28T02:20:56.239Z,15.47
2022-08-28T02:24:06.433Z,15.47
2022-08-28T02:27:16.445Z,15.39
2022-08-28T02:30:28.724Z,15.33
2022-08-28T02:33:39.726Z,15.37
2022-08-28T02:36:49.999Z,15.38
2022-08-28T02:40:00.480Z,15.44
2022-08-28T02:43:11.265Z,15.39
2022-08-28T02:46:23.535Z,15.39
2022-08-28T02:49:35.507Z,15.30
2022-08-28T02:52:47.385Z,15.24
2022-08-28T02:55:58.161Z,15.22
2022-08-28T02:59:09.086Z,15.29
2022-08-28T03:02:20.822Z,15.26
2022-08-28T03:05:31.418Z,15.25
2022-08-28T03:08:42.191Z,15.23
2022-08-28T03:11:53.476Z,15.26
2022-08-28T03:15:05.243Z,15.20
2022-08-28T03:18:18.044Z,15.09
2022-08-28T03:21:29.304Z,15.05
2022-08-28T03:24:39.784Z,15.06
2022-08-28T03:27:50.353Z,15.01
2022-08-28T03:31:00.824Z,15.02
2022-08-28T03:34:13.263Z,14.96
2022-08-28T03:37:23.464Z,14.96
2022-08-28T03:40:33.825Z,14.98
2022-08-28T03:43:45.469Z,14.97
2022-08-28T03:46:55.931Z,14.97
2022-08-28T03:50:11.323Z,14.94
2022-08-28T03:53:23.018Z,14.88
2022-08-28T03:56:33.371Z,14.90
2022-08-28T03:59:43.630Z,14.82
2022-08-28T04:02:54.726Z,14.84
2022-08-28T04:06:06.946Z,14.88
2022-08-28T04:09:17.119Z,14.87
2022-08-28T04:12:27.389Z,14.87
2022-08-28T04:15:41.348Z,14.85
2022-08-28T04:18:51.801Z,14.82
2022-08-28T04:22:03.388Z,14.80
2022-08-28T04:25:14.132Z,14.85
2022-08-28T04:28:25.865Z,14.86
2022-08-28T04:31:37.011Z,14.84
2022-08-28T04:34:47.348Z,14.81
2022-08-28T04:37:59.207Z,14.79
2022-08-28T04:41:12.131Z,14.79
2022-08-28T04:44:22.704Z,14.80
2022-08-28T04:47:36.933Z,14.84
2022-08-28T04:50:48.914Z,14.82
2022-08-28T04:54:00.739Z,14.88
2022-08-28T04:57:11.094Z,14.92
2022-08-28T05:00:21.819Z,14.93
2022-08-28T05:03:32.846Z,14.97
2022-08-28T05:06:46.216Z,15.00
2022-08-28T05:09:58.552Z,15.09
2022-08-28T05:13:10.863Z,15.14
2022-08-28T05:16:23.013Z,15.20
2022-08-28T05:19:34.056Z,15.20
2022-08-28T05:22:44.054Z,15.26
2022-08-28T05:25:55.893Z,15.26
2022-08-28T05:29:06.959Z,15.32
2022-08-28T05:32:17.769Z,15.35
2022-08-28T05:35:28.722Z,15.50
2022-08-28T05:38:39.555Z,15.61
2022-08-28T05:41:51.849Z,15.68
2022-08-28T05:45:02.315Z,15.69
2022-08-28T05:48:14.236Z,15.71
2022-08-28T05:51:26.601Z,15.75
2022-08-28T05:54:37.913Z,15.89
2022-08-28T05:57:49.764Z,16.04
2022-08-28T06:01:08.607Z,16.08
2022-08-28T06:04:23.438Z,16.19
2022-08-28T06:07:34.913Z,16.33
2022-08-28T06:10:47.824Z,16.35
2022-08-28T06:14:04.490Z,16.40
2022-08-28T06:17:15.180Z,16.40
2022-08-28T06:20:25.842Z,16.48
2022-08-28T06:23:36.252Z,16.61
2022-08-28T06:26:46.970Z,16.75
2022-08-28T06:29:58.782Z,16.73
2022-08-28T06:33:09.600Z,16.89
2022-08-28T06:36:20.243Z,16.96
2022-08-28T06:39:30.551Z,17.14
2022-08-28T06:42:40.974Z,17.27
2022-08-28T06:45:54.833Z,17.36
2022-08-28T06:49:06.319Z,17.52
2022-08-28T06:52:16.476Z,17.82
2022-08-28T06:55:26.760Z,17.95
2022-08-28T06:58:40.333Z,17.94
2022-08-28T07:01:54.673Z,18.53
2022-08-28T07:05:05.790Z,18.55
2022-08-28T07:08:16.320Z,18.50
2022-08-28T07:11:28.879Z,18.48
2022-08-28T07:14:39.469Z,18.46
2022-08-28T07:17:51.368Z,18.56
2022-08-28T07:21:02.268Z,18.68
2022-08-28T07:24:15.128Z,18.93
2022-08-28T07:27:26.075Z,18.93
2022-08-28T07:30:36.685Z,18.86
2022-08-28T07:33:50.798Z,18.97
2022-08-28T07:37:06.935Z,18.97
2022-08-28T07:40:18.936Z,19.08
2022-08-28T07:43:46.942Z,19.34
2022-08-28T07:46:59.618Z,19.85
2022-08-28T07:50:11.355Z,20.05
2022-08-28T07:53:21.970Z,19.94
2022-08-28T07:56:33.215Z,19.89
2022-08-28T07:59:44.616Z,19.94
2022-08-28T08:02:54.900Z,20.07
2022-08-28T08:06:07.110Z,20.19
2022-08-28T08:09:19.159Z,20.28
2022-08-28T08:12:29.515Z,20.25
2022-08-28T08:15:41.337Z,20.41
2022-08-28T08:18:52.409Z,20.64
2022-08-28T08:22:04.214Z,21.22
2022-08-28T08:25:14.617Z,20.88
2022-08-28T08:28:24.992Z,20.56
2022-08-28T08:31:35.424Z,20.47
2022-08-28T08:34:47.260Z,20.36
2022-08-28T08:38:02.838Z,20.51
2022-08-28T08:41:21.311Z,20.51
2022-08-28T08:44:35.593Z,20.51
2022-08-28T08:47:51.357Z,20.30
2022-08-28T08:51:05.748Z,20.50
2022-08-28T08:54:20.915Z,20.57
2022-08-28T08:57:33.540Z,20.78
2022-08-28T09:00:53.274Z,20.98
2022-08-28T09:04:13.366Z,21.14
2022-08-28T09:07:34.650Z,21.22
2022-08-28T09:10:54.850Z,21.32
2022-08-28T09:14:14.139Z,21.79
2022-08-28T09:17:35.645Z,21.95
2022-08-28T09:20:51.583Z,22.24
2022-08-28T09:24:05.906Z,21.85
2022-08-28T09:27:26.699Z,21.35
2022-08-28T09:30:38.323Z,21.37
2022-08-28T09:33:51.280Z,21.42
2022-08-28T09:37:02.606Z,21.57
2022-08-28T09:40:23.305Z,21.57
2022-08-28T09:43:35.997Z,21.77
2022-08-28T09:46:49.726Z,22.03
2022-08-28T09:50:16.903Z,21.95
2022-08-28T09:53:30.724Z,21.81
2022-08-28T09:56:43.447Z,21.60
2022-08-28T09:59:54.957Z,21.58
2022-08-28T10:03:14.974Z,21.82
2022-08-28T10:06:27.427Z,21.92
2022-08-28T10:09:50.780Z,21.78
2022-08-28T10:13:07.043Z,21.66
2022-08-28T10:16:28.725Z,21.74
2022-08-28T10:19:49.373Z,21.74
2022-08-28T10:23:08.211Z,21.94
2022-08-28T10:26:25.160Z,21.80
2022-08-28T10:29:48.322Z,21.61
2022-08-28T10:33:13.741Z,21.53
2022-08-28T10:36:34.445Z,21.61
2022-08-28T10:39:57.834Z,21.67
2022-08-28T10:43:13.524Z,21.49
2022-08-28T10:46:30.798Z,21.21
2022-08-28T10:49:45.315Z,21.02
2022-08-28T10:53:00.920Z,20.94
2022-08-28T10:56:16.980Z,20.75
2022-08-28T10:59:30.030Z,20.55
2022-08-28T11:02:43.194Z,20.64
2022-08-28T11:06:01.906Z,20.79
2022-08-28T11:09:27.474Z,20.77
2022-08-28T11:12:43.840Z,20.75
2022-08-28T11:15:54.598Z,20.81
2022-08-28T11:19:29.753Z,20.90
2022-08-28T11:22:44.769Z,21.03
2022-08-28T11:26:00.027Z,21.17
2022-08-28T11:29:10.271Z,21.26
2022-08-28T11:32:41.458Z,21.43
2022-08-28T11:35:57.945Z,21.67
2022-08-28T11:39:21.611Z,21.62
2022-08-28T11:42:38.509Z,21.49
2022-08-28T11:46:24.222Z,21.44
2022-08-28T11:49:45.117Z,21.55
2022-08-28T11:53:30.590Z,21.31
2022-08-28T11:56:55.171Z,21.26
2022-08-28T12:00:09.389Z,21.00
2022-08-28T12:03:28.723Z,20.69
2022-08-28T12:07:20.297Z,20.75
2022-08-28T12:10:56.656Z,20.94
2022-08-28T12:14:09.118Z,21.25
2022-08-28T12:17:31.207Z,21.51
2022-08-28T12:20:58.460Z,21.90
2022-08-28T12:24:20.569Z,21.88
2022-08-28T12:27:32.369Z,21.73
2022-08-28T12:30:52.537Z,21.52
2022-08-28T12:34:09.704Z,21.40
2022-08-28T12:37:43.971Z,21.65
2022-08-28T12:41:03.564Z,21.71
2022-08-28T12:44:15.591Z,21.78
2022-08-28T12:47:28.051Z,21.86
2022-08-28T12:50:40.435Z,21.66
2022-08-28T12:53:52.556Z,21.50
2022-08-28T12:57:08.179Z,21.46
2022-08-28T13:00:20.654Z,21.45
2022-08-28T13:03:33.291Z,21.37
2022-08-28T13:06:43.608Z,21.30
2022-08-28T13:09:56.534Z,21.20
2022-08-28T13:13:19.576Z,21.30
2022-08-28T13:16:39.877Z,21.45
2022-08-28T13:20:02.987Z,21.42
2022-08-28T13:23:30.992Z,21.33
2022-08-28T13:26:41.595Z,21.30
2022-08-28T13:30:00.649Z,21.28
2022-08-28T13:33:22.530Z,21.12
2022-08-28T13:36:45.462Z,20.96
2022-08-28T13:39:55.886Z,21.07
2022-08-28T13:43:11.281Z,20.86
2022-08-28T13:46:22.170Z,20.88
2022-08-28T13:49:32.798Z,21.09
2022-08-28T13:52:45.251Z,21.20
2022-08-28T13:55:58.447Z,21.28
2022-08-28T13:59:08.570Z,21.29
2022-08-28T14:02:36.203Z,21.32
2022-08-28T14:05:46.517Z,21.23
2022-08-28T14:08:58.289Z,21.17
2022-08-28T14:12:10.404Z,21.11
2022-08-28T14:15:20.586Z,21.17
2022-08-28T14:18:30.817Z,21.17
2022-08-28T14:21:42.764Z,21.21
2022-08-28T14:24:55.025Z,21.29
2022-08-28T14:28:05.179Z,21.28
2022-08-28T14:31:15.763Z,21.25
2022-08-28T14:34:26.893Z,21.15
2022-08-28T14:37:37.137Z,21.19
2022-08-28T14:40:49.365Z,21.23
2022-08-28T14:43:59.893Z,21.24
2022-08-28T14:47:09.859Z,21.28
2022-08-28T14:50:20.120Z,21.16
2022-08-28T14:53:30.413Z,21.23
2022-08-28T14:56:43.101Z,21.23
2022-08-28T14:59:53.183Z,21.20
2022-08-28T15:03:04.547Z,21.12
2022-08-28T15:06:14.575Z,21.11
2022-08-28T15:09:24.653Z,21.17
2022-08-28T15:12:36.242Z,21.07
2022-08-28T15:15:49.599Z,20.99
2022-08-28T15:19:00.993Z,20.98
2022-08-28T15:22:11.758Z,20.92
2022-08-28T15:25:21.958Z,20.87
2022-08-28T15:28:33.842Z,20.82
2022-08-28T15:31:48.015Z,20.85
2022-08-28T15:34:58.505Z,20.82
2022-08-28T15:38:09.005Z,20.93
2022-08-28T15:41:24.636Z,20.79
2022-08-28T15:44:36.330Z,20.71
2022-08-28T15:47:46.938Z,20.64
2022-08-28T15:50:58.102Z,20.66
2022-08-28T15:54:10.887Z,20.62
2022-08-28T15:57:21.710Z,20.56
2022-08-28T16:00:33.689Z,20.63
2022-08-28T16:03:44.521Z,20.58
2022-08-28T16:07:00.700Z,20.62
2022-08-28T16:10:13.394Z,20.58
2022-08-28T16:13:25.113Z,20.41
2022-08-28T16:16:36.907Z,20.40
2022-08-28T16:19:47.507Z,20.42
2022-08-28T16:22:57.588Z,20.40
2022-08-28T16:26:09.022Z,20.41
2022-08-28T16:29:19.569Z,20.36
2022-08-28T16:32:32.557Z,20.41
2022-08-28T16:35:49.179Z,20.44
2022-08-28T16:39:04.081Z,20.39
2022-08-28T16:42:15.456Z,20.28
2022-08-28T16:45:26.183Z,20.22
2022-08-28T16:48:38.241Z,20.17
2022-08-28T16:51:48.745Z,20.15
2022-08-28T16:54:59.848Z,20.03
2022-08-28T16:58:12.815Z,19.98
2022-08-28T17:01:25.628Z,19.95
2022-08-28T17:04:37.916Z,19.94
2022-08-28T17:07:49.240Z,19.96
2022-08-28T17:10:59.767Z,19.93
2022-08-28T17:14:11.952Z,19.90
2022-08-28T17:17:22.440Z,19.87
2022-08-28T17:20:51.367Z,19.76
2022-08-28T17:24:01.838Z,19.70
2022-08-28T17:27:11.862Z,19.69
2022-08-28T17:30:23.585Z,19.65
2022-08-28T17:33:34.016Z,19.61
2022-08-28T17:36:45.908Z,19.66
2022-08-28T17:39:56.099Z,19.57
2022-08-28T17:43:07.129Z,19.51
2022-08-28T17:46:17.865Z,19.54
2022-08-28T17:49:28.415Z,19.52
2022-08-28T17:52:40.040Z,19.47
2022-08-28T17:55:50.619Z,19.45
2022-08-28T17:59:00.671Z,19.44
2022-08-28T18:02:11.060Z,19.38
2022-08-28T18:05:22.024Z,19.35
2022-08-28T18:08:34.023Z,19.43
2022-08-28T18:11:45.403Z,19.39
2022-08-28T18:14:56.000Z,19.34
2022-08-28T18:18:06.660Z,19.32
2022-08-28T18:21:17.457Z,19.32
2022-08-28T18:24:29.044Z,19.19
2022-08-28T18:27:42.222Z,19.19
2022-08-28T18:30:53.469Z,19.16
2022-08-28T18:34:04.037Z,19.22
2022-08-28T18:37:14.217Z,19.20
2022-08-28T18:40:25.948Z,19.07
2022-08-28T18:43:37.316Z,19.02
2022-08-28T18:46:48.254Z,19.04
2022-08-28T18:49:58.836Z,19.03
2022-08-28T18:53:08.974Z,18.99
2022-08-28T18:56:20.339Z,18.88
2022-08-28T18:59:32.609Z,18.91
2022-08-28T19:02:43.348Z,18.84
2022-08-28T19:05:55.251Z,18.83
2022-08-28T19:09:06.408Z,18.85
2022-08-28T19:12:18.255Z,18.66
2022-08-28T19:15:29.113Z,18.68
2022-08-28T19:18:39.671Z,18.74
2022-08-28T19:21:50.206Z,18.71
2022-08-28T19:25:00.413Z,18.68
2022-08-28T19:28:12.281Z,18.63
2022-08-28T19:31:23.023Z,18.56
2022-08-28T19:34:33.833Z,18.40
2022-08-28T19:37:44.374Z,18.37
2022-08-28T19:40:54.870Z,18.32
2022-08-28T19:44:07.369Z,18.25
2022-08-28T19:47:17.507Z,18.21
2022-08-28T19:50:27.707Z,18.22
2022-08-28T19:53:39.281Z,18.21
2022-08-28T19:56:49.604Z,18.21
2022-08-28T20:00:05.749Z,18.28
2022-08-28T20:03:16.399Z,18.30
2022-08-28T20:06:27.086Z,18.19
2022-08-28T20:09:37.452Z,18.14
2022-08-28T20:12:48.616Z,18.17
2022-08-28T20:16:04.753Z,18.25
2022-08-28T20:19:16.285Z,18.25
2022-08-28T20:22:27.245Z,18.28
2022-08-28T20:25:38.807Z,18.22
2022-08-28T20:28:52.559Z,18.26
2022-08-28T20:32:05.042Z,18.14
2022-08-28T20:35:15.917Z,18.19
2022-08-28T20:38:26.243Z,18.22
2022-08-28T20:41:38.163Z,18.19
2022-08-28T20:44:48.726Z,18.14
2022-08-28T20:48:00.269Z,18.12
2022-08-28T20:51:11.892Z,18.11
2022-08-28T20:54:24.627Z,18.17
2022-08-28T20:57:35.143Z,18.15
2022-08-28T21:00:46.026Z,18.18
2022-08-28T21:03:57.920Z,18.12
2022-08-28T21:07:09.596Z,18.13
2022-08-28T21:10:20.135Z,18.14
2022-08-28T21:13:30.395Z,18.11
2022-08-28T21:16:41.805Z,18.13
2022-08-28T21:19:53.777Z,18.10
2022-08-28T21:23:06.118Z,18.02
2022-08-28T21:26:16.542Z,17.98
2022-08-28T21:29:26.814Z,17.96
2022-08-28T21:32:37.891Z,18.00
2022-08-28T21:35:50.114Z,18.00
2022-08-28T21:39:00.601Z,17.95
2022-08-28T21:42:10.803Z,18.02
2022-08-28T21:45:22.009Z,18.00
2022-08-28T21:48:33.054Z,17.93
2022-08-28T21:51:44.938Z,18.00
2022-08-28T21:54:59.090Z,18.07
2022-08-28T21:58:09.502Z,18.05
2022-08-28T22:01:23.941Z,18.09
2022-08-28T22:04:34.756Z,18.13
2022-08-28T22:07:46.508Z,18.11
2022-08-28T22:10:57.728Z,18.12
2022-08-28T22:14:08.251Z,18.14
2022-08-28T22:17:18.842Z,18.10
2022-08-28T22:20:30.582Z,18.16
2022-08-28T22:23:41.513Z,18.17
2022-08-28T22:26:57.382Z,18.13
2022-08-28T22:30:09.192Z,18.05
2022-08-28T22:33:19.702Z,18.13
2022-08-28T22:36:30.591Z,18.13
2022-08-28T22:39:43.111Z,18.06
2022-08-28T22:42:53.148Z,18.02
2022-08-28T22:46:04.391Z,18.05
2022-08-28T22:49:15.688Z,18.03
2022-08-28T22:52:25.995Z,18.00
2022-08-28T22:55:43.224Z,18.07
2022-08-28T22:58:54.230Z,18.11
2022-08-28T23:02:05.306Z,18.14
2022-08-28T23:05:16.025Z,18.13
2022-08-28T23:08:29.635Z,18.13
2022-08-28T23:11:44.012Z,18.20
2022-08-28T23:14:54.575Z,18.18
2022-08-28T23:18:05.349Z,18.21
2022-08-28T23:21:16.007Z,18.24
2022-08-28T23:24:31.408Z,18.23
2022-08-28T23:27:43.353Z,18.22
2022-08-28T23:30:53.670Z,18.18
2022-08-28T23:34:04.990Z,18.22
2022-08-28T23:37:15.138Z,18.19
2022-08-28T23:40:27.109Z,18.20
2022-08-28T23:43:42.271Z,18.23
2022-08-28T23:46:52.828Z,18.25
2022-08-28T23:50:03.049Z,18.20
2022-08-28T23:53:13.418Z,18.15
2022-08-28T23:56:28.153Z,18.14
2022-08-28T23:59:40.356Z,18.19
